sensor_id;sensor_type;location;lat;lon;timestamp;P1;durP1;ratioP1;P2;durP2;ratioP2
53775;SDS011;44276;49.534;6.378;2023-04-03T00:01:32;2.53;;;1.42;;
53775;SDS011;44276;49.534;6.378;2023-04-03T00:04:01;1.35;;;1.10;;
53775;SDS011;44276;49.534;6.378;2023-04-03T00:06:29;2.35;;;1.00;;
53775;SDS011;44276;49.534;6.378;2023-04-03T00:08:57;2.78;;;1.25;;
53775;SDS011;44276;49.534;6.378;2023-04-03T00:11:25;5.53;;;1.67;;
53775;SDS011;44276;49.534;6.378;2023-04-03T00:13:54;1.70;;;1.33;;
53775;SDS011;44276;49.534;6.378;2023-04-03T00:16:22;2.08;;;1.40;;
53775;SDS011;44276;49.534;6.378;2023-04-03T00:18:51;1.90;;;1.27;;
53775;SDS011;44276;49.534;6.378;2023-04-03T00:21:19;1.95;;;1.02;;
53775;SDS011;44276;49.534;6.378;2023-04-03T00:23:47;2.75;;;1.27;;
53775;SDS011;44276;49.534;6.378;2023-04-03T00:26:16;1.85;;;1.13;;
53775;SDS011;44276;49.534;6.378;2023-04-03T00:28:44;6.53;;;1.40;;
53775;SDS011;44276;49.534;6.378;2023-04-03T00:31:13;3.17;;;1.80;;
53775;SDS011;44276;49.534;6.378;2023-04-03T00:33:42;2.28;;;1.38;;
53775;SDS011;44276;49.534;6.378;2023-04-03T00:36:12;1.75;;;1.00;;
53775;SDS011;44276;49.534;6.378;2023-04-03T00:38:40;1.48;;;0.90;;
53775;SDS011;44276;49.534;6.378;2023-04-03T00:41:09;3.67;;;1.35;;
53775;SDS011;44276;49.534;6.378;2023-04-03T00:43:37;1.92;;;1.13;;
53775;SDS011;44276;49.534;6.378;2023-04-03T00:46:05;1.10;;;0.82;;
53775;SDS011;44276;49.534;6.378;2023-04-03T00:48:34;3.95;;;1.27;;
53775;SDS011;44276;49.534;6.378;2023-04-03T00:51:08;4.50;;;2.20;;
53775;SDS011;44276;49.534;6.378;2023-04-03T00:53:41;2.10;;;1.10;;
53775;SDS011;44276;49.534;6.378;2023-04-03T00:56:14;4.47;;;1.55;;
53775;SDS011;44276;49.534;6.378;2023-04-03T00:58:48;2.47;;;1.83;;
53775;SDS011;44276;49.534;6.378;2023-04-03T01:01:22;4.15;;;1.20;;
53775;SDS011;44276;49.534;6.378;2023-04-03T01:03:54;1.65;;;1.35;;
53775;SDS011;44276;49.534;6.378;2023-04-03T01:06:24;2.75;;;1.77;;
53775;SDS011;44276;49.534;6.378;2023-04-03T01:08:57;3.67;;;2.00;;
53775;SDS011;44276;49.534;6.378;2023-04-03T01:11:26;4.07;;;1.73;;
53775;SDS011;44276;49.534;6.378;2023-04-03T01:13:55;6.50;;;1.85;;
53775;SDS011;44276;49.534;6.378;2023-04-03T01:16:23;1.95;;;1.40;;
53775;SDS011;44276;49.534;6.378;2023-04-03T01:18:51;2.47;;;1.60;;
53775;SDS011;44276;49.534;6.378;2023-04-03T01:24:40;2.72;;;1.58;;
53775;SDS011;44276;49.534;6.378;2023-04-03T01:27:09;2.53;;;2.00;;
53775;SDS011;44276;49.534;6.378;2023-04-03T01:29:38;7.30;;;1.90;;
53775;SDS011;44276;49.534;6.378;2023-04-03T01:32:11;2.63;;;1.40;;
53775;SDS011;44276;49.534;6.378;2023-04-03T01:34:39;2.40;;;1.50;;
53775;SDS011;44276;49.534;6.378;2023-04-03T01:37:07;2.25;;;1.52;;
53775;SDS011;44276;49.534;6.378;2023-04-03T01:39:35;3.15;;;1.58;;
53775;SDS011;44276;49.534;6.378;2023-04-03T01:42:04;5.70;;;1.80;;
53775;SDS011;44276;49.534;6.378;2023-04-03T01:44:32;2.13;;;1.60;;
53775;SDS011;44276;49.534;6.378;2023-04-03T01:47:01;4.53;;;1.88;;
53775;SDS011;44276;49.534;6.378;2023-04-03T01:49:34;2.78;;;1.58;;
53775;SDS011;44276;49.534;6.378;2023-04-03T01:52:02;2.53;;;1.25;;
53775;SDS011;44276;49.534;6.378;2023-04-03T01:54:30;2.88;;;1.40;;
53775;SDS011;44276;49.534;6.378;2023-04-03T01:56:59;4.53;;;1.70;;
53775;SDS011;44276;49.534;6.378;2023-04-03T01:59:27;6.53;;;1.77;;
53775;SDS011;44276;49.534;6.378;2023-04-03T02:01:55;4.80;;;2.00;;
53775;SDS011;44276;49.534;6.378;2023-04-03T02:04:23;1.63;;;1.30;;
53775;SDS011;44276;49.534;6.378;2023-04-03T02:06:52;2.50;;;1.50;;
53775;SDS011;44276;49.534;6.378;2023-04-03T02:09:21;5.13;;;1.77;;
53775;SDS011;44276;49.534;6.378;2023-04-03T02:11:49;2.38;;;1.70;;
53775;SDS011;44276;49.534;6.378;2023-04-03T02:14:17;4.15;;;2.80;;
53775;SDS011;44276;49.534;6.378;2023-04-03T02:16:45;7.35;;;2.20;;
53775;SDS011;44276;49.534;6.378;2023-04-03T02:19:14;3.17;;;2.40;;
53775;SDS011;44276;49.534;6.378;2023-04-03T02:21:42;4.80;;;2.55;;
53775;SDS011;44276;49.534;6.378;2023-04-03T02:24:12;3.67;;;2.25;;
53775;SDS011;44276;49.534;6.378;2023-04-03T02:26:40;5.05;;;2.03;;
53775;SDS011;44276;49.534;6.378;2023-04-03T02:29:08;1.90;;;1.67;;
53775;SDS011;44276;49.534;6.378;2023-04-03T02:31:36;6.13;;;2.63;;
53775;SDS011;44276;49.534;6.378;2023-04-03T02:34:04;6.43;;;2.22;;
53775;SDS011;44276;49.534;6.378;2023-04-03T02:36:32;3.00;;;2.17;;
53775;SDS011;44276;49.534;6.378;2023-04-03T02:39:00;3.03;;;2.17;;
53775;SDS011;44276;49.534;6.378;2023-04-03T02:41:31;5.88;;;2.65;;
53775;SDS011;44276;49.534;6.378;2023-04-03T02:44:01;4.25;;;2.13;;
53775;SDS011;44276;49.534;6.378;2023-04-03T02:46:30;3.90;;;2.53;;
53775;SDS011;44276;49.534;6.378;2023-04-03T02:49:00;5.93;;;2.88;;
53775;SDS011;44276;49.534;6.378;2023-04-03T02:51:28;5.38;;;2.40;;
53775;SDS011;44276;49.534;6.378;2023-04-03T02:53:56;3.13;;;2.28;;
53775;SDS011;44276;49.534;6.378;2023-04-03T02:56:24;6.10;;;3.13;;
53775;SDS011;44276;49.534;6.378;2023-04-03T02:58:54;5.40;;;3.15;;
53775;SDS011;44276;49.534;6.378;2023-04-03T03:01:22;4.53;;;3.30;;
53775;SDS011;44276;49.534;6.378;2023-04-03T03:03:50;3.55;;;2.67;;
53775;SDS011;44276;49.534;6.378;2023-04-03T03:06:18;4.13;;;3.30;;
53775;SDS011;44276;49.534;6.378;2023-04-03T03:08:47;5.18;;;2.45;;
53775;SDS011;44276;49.534;6.378;2023-04-03T03:11:15;5.38;;;2.30;;
53775;SDS011;44276;49.534;6.378;2023-04-03T03:13:43;4.90;;;3.50;;
53775;SDS011;44276;49.534;6.378;2023-04-03T03:16:13;7.50;;;3.80;;
53775;SDS011;44276;49.534;6.378;2023-04-03T03:18:41;4.00;;;2.88;;
53775;SDS011;44276;49.534;6.378;2023-04-03T03:21:09;5.28;;;2.78;;
53775;SDS011;44276;49.534;6.378;2023-04-03T03:23:37;5.60;;;3.00;;
53775;SDS011;44276;49.534;6.378;2023-04-03T03:26:07;3.80;;;1.90;;
53775;SDS011;44276;49.534;6.378;2023-04-03T03:28:37;10.07;;;2.95;;
53775;SDS011;44276;49.534;6.378;2023-04-03T03:31:07;7.15;;;2.38;;
53775;SDS011;44276;49.534;6.378;2023-04-03T03:33:38;3.42;;;2.65;;
53775;SDS011;44276;49.534;6.378;2023-04-03T03:36:06;6.28;;;2.92;;
53775;SDS011;44276;49.534;6.378;2023-04-03T03:38:35;4.47;;;2.85;;
53775;SDS011;44276;49.534;6.378;2023-04-03T03:41:03;11.15;;;3.55;;
53775;SDS011;44276;49.534;6.378;2023-04-03T03:43:31;11.02;;;3.63;;
53775;SDS011;44276;49.534;6.378;2023-04-03T03:45:59;5.13;;;3.42;;
53775;SDS011;44276;49.534;6.378;2023-04-03T03:48:27;9.77;;;3.85;;
53775;SDS011;44276;49.534;6.378;2023-04-03T03:50:57;7.47;;;3.78;;
53775;SDS011;44276;49.534;6.378;2023-04-03T03:53:25;6.03;;;3.55;;
53775;SDS011;44276;49.534;6.378;2023-04-03T03:55:53;5.63;;;3.30;;
53775;SDS011;44276;49.534;6.378;2023-04-03T03:58:21;4.82;;;2.65;;
53775;SDS011;44276;49.534;6.378;2023-04-03T04:00:49;6.80;;;4.20;;
53775;SDS011;44276;49.534;6.378;2023-04-03T04:03:17;5.47;;;3.28;;
53775;SDS011;44276;49.534;6.378;2023-04-03T04:05:45;5.97;;;3.50;;
53775;SDS011;44276;49.534;6.378;2023-04-03T04:08:15;7.18;;;3.20;;
53775;SDS011;44276;49.534;6.378;2023-04-03T04:10:43;7.45;;;4.03;;
53775;SDS011;44276;49.534;6.378;2023-04-03T04:13:11;5.82;;;3.22;;
53775;SDS011;44276;49.534;6.378;2023-04-03T04:15:39;7.70;;;3.30;;
53775;SDS011;44276;49.534;6.378;2023-04-03T04:18:07;5.75;;;3.58;;
53775;SDS011;44276;49.534;6.378;2023-04-03T04:20:36;3.80;;;2.50;;
53775;SDS011;44276;49.534;6.378;2023-04-03T04:23:04;6.82;;;3.10;;
53775;SDS011;44276;49.534;6.378;2023-04-03T04:25:33;10.95;;;3.47;;
53775;SDS011;44276;49.534;6.378;2023-04-03T04:28:02;4.97;;;3.15;;
53775;SDS011;44276;49.534;6.378;2023-04-03T04:30:30;4.05;;;2.75;;
53775;SDS011;44276;49.534;6.378;2023-04-03T04:32:58;8.57;;;2.67;;
53775;SDS011;44276;49.534;6.378;2023-04-03T04:35:26;4.80;;;2.10;;
53775;SDS011;44276;49.534;6.378;2023-04-03T04:37:54;6.72;;;3.53;;
53775;SDS011;44276;49.534;6.378;2023-04-03T04:40:22;6.20;;;3.10;;
53775;SDS011;44276;49.534;6.378;2023-04-03T04:42:52;9.07;;;3.40;;
53775;SDS011;44276;49.534;6.378;2023-04-03T04:45:20;6.18;;;2.78;;
53775;SDS011;44276;49.534;6.378;2023-04-03T04:47:48;6.47;;;3.40;;
53775;SDS011;44276;49.534;6.378;2023-04-03T04:50:18;11.27;;;2.92;;
53775;SDS011;44276;49.534;6.378;2023-04-03T04:52:47;7.90;;;3.20;;
53775;SDS011;44276;49.534;6.378;2023-04-03T04:55:15;11.20;;;2.95;;
53775;SDS011;44276;49.534;6.378;2023-04-03T04:57:43;6.13;;;2.55;;
53775;SDS011;44276;49.534;6.378;2023-04-03T05:00:14;5.97;;;3.20;;
53775;SDS011;44276;49.534;6.378;2023-04-03T05:02:43;4.68;;;2.17;;
53775;SDS011;44276;49.534;6.378;2023-04-03T05:05:11;3.80;;;2.08;;
53775;SDS011;44276;49.534;6.378;2023-04-03T05:07:39;3.25;;;2.15;;
53775;SDS011;44276;49.534;6.378;2023-04-03T05:10:08;3.92;;;2.72;;
53775;SDS011;44276;49.534;6.378;2023-04-03T05:12:37;6.28;;;3.33;;
53775;SDS011;44276;49.534;6.378;2023-04-03T05:15:06;5.60;;;1.80;;
53775;SDS011;44276;49.534;6.378;2023-04-03T05:17:37;5.45;;;3.38;;
53775;SDS011;44276;49.534;6.378;2023-04-03T05:20:06;3.30;;;2.72;;
53775;SDS011;44276;49.534;6.378;2023-04-03T05:22:35;6.78;;;2.80;;
53775;SDS011;44276;49.534;6.378;2023-04-03T05:25:03;3.92;;;2.60;;
53775;SDS011;44276;49.534;6.378;2023-04-03T05:27:33;6.30;;;2.10;;
53775;SDS011;44276;49.534;6.378;2023-04-03T05:30:01;3.13;;;1.98;;
53775;SDS011;44276;49.534;6.378;2023-04-03T05:32:30;4.15;;;2.40;;
53775;SDS011;44276;49.534;6.378;2023-04-03T05:34:59;2.35;;;1.63;;
53775;SDS011;44276;49.534;6.378;2023-04-03T05:37:28;5.90;;;2.35;;
53775;SDS011;44276;49.534;6.378;2023-04-03T05:39:56;8.27;;;2.33;;
53775;SDS011;44276;49.534;6.378;2023-04-03T05:42:24;4.03;;;2.35;;
53775;SDS011;44276;49.534;6.378;2023-04-03T05:44:52;5.20;;;2.78;;
53775;SDS011;44276;49.534;6.378;2023-04-03T05:47:21;3.13;;;2.05;;
53775;SDS011;44276;49.534;6.378;2023-04-03T05:49:49;15.95;;;1.83;;
53775;SDS011;44276;49.534;6.378;2023-04-03T05:52:20;3.60;;;2.20;;
53775;SDS011;44276;49.534;6.378;2023-04-03T05:54:53;5.57;;;2.55;;
53775;SDS011;44276;49.534;6.378;2023-04-03T05:57:22;1.52;;;1.42;;
53775;SDS011;44276;49.534;6.378;2023-04-03T05:59:51;4.28;;;1.55;;
53775;SDS011;44276;49.534;6.378;2023-04-03T06:02:20;2.47;;;1.42;;
53775;SDS011;44276;49.534;6.378;2023-04-03T06:04:50;4.15;;;1.67;;
53775;SDS011;44276;49.534;6.378;2023-04-03T06:07:21;5.50;;;2.65;;
53775;SDS011;44276;49.534;6.378;2023-04-03T06:09:54;7.03;;;1.50;;
53775;SDS011;44276;49.534;6.378;2023-04-03T06:12:24;1.52;;;1.00;;
53775;SDS011;44276;49.534;6.378;2023-04-03T06:14:52;1.60;;;1.20;;
53775;SDS011;44276;49.534;6.378;2023-04-03T06:17:20;1.92;;;1.10;;
53775;SDS011;44276;49.534;6.378;2023-04-03T06:19:48;6.85;;;0.90;;
53775;SDS011;44276;49.534;6.378;2023-04-03T06:22:16;8.18;;;1.45;;
53775;SDS011;44276;49.534;6.378;2023-04-03T06:24:46;1.88;;;1.13;;
53775;SDS011;44276;49.534;6.378;2023-04-03T06:27:14;2.55;;;1.08;;
53775;SDS011;44276;49.534;6.378;2023-04-03T06:29:42;3.10;;;1.27;;
53775;SDS011;44276;49.534;6.378;2023-04-03T06:32:11;1.27;;;0.93;;
53775;SDS011;44276;49.534;6.378;2023-04-03T06:34:39;2.38;;;1.15;;
53775;SDS011;44276;49.534;6.378;2023-04-03T06:37:10;6.07;;;1.00;;
53775;SDS011;44276;49.534;6.378;2023-04-03T06:39:42;1.50;;;0.85;;
53775;SDS011;44276;49.534;6.378;2023-04-03T06:42:12;1.65;;;1.13;;
53775;SDS011;44276;49.534;6.378;2023-04-03T06:44:40;3.08;;;1.33;;
53775;SDS011;44276;49.534;6.378;2023-04-03T06:47:09;1.58;;;0.70;;
53775;SDS011;44276;49.534;6.378;2023-04-03T06:49:39;1.70;;;0.85;;
53775;SDS011;44276;49.534;6.378;2023-04-03T06:52:07;2.55;;;1.05;;
53775;SDS011;44276;49.534;6.378;2023-04-03T06:54:38;1.27;;;0.90;;
53775;SDS011;44276;49.534;6.378;2023-04-03T06:57:07;2.47;;;0.98;;
53775;SDS011;44276;49.534;6.378;2023-04-03T06:59:37;4.60;;;1.90;;
53775;SDS011;44276;49.534;6.378;2023-04-03T07:02:06;3.38;;;1.33;;
53775;SDS011;44276;49.534;6.378;2023-04-03T07:04:37;2.08;;;1.10;;
53775;SDS011;44276;49.534;6.378;2023-04-03T07:07:05;2.15;;;1.00;;
53775;SDS011;44276;49.534;6.378;2023-04-03T07:09:33;3.58;;;1.10;;
53775;SDS011;44276;49.534;6.378;2023-04-03T07:12:02;2.50;;;0.80;;
53775;SDS011;44276;49.534;6.378;2023-04-03T07:14:30;2.88;;;0.73;;
53775;SDS011;44276;49.534;6.378;2023-04-03T07:17:00;2.08;;;1.30;;
53775;SDS011;44276;49.534;6.378;2023-04-03T07:19:28;2.15;;;0.93;;
53775;SDS011;44276;49.534;6.378;2023-04-03T07:21:57;3.22;;;0.88;;
53775;SDS011;44276;49.534;6.378;2023-04-03T07:24:25;7.50;;;1.10;;
53775;SDS011;44276;49.534;6.378;2023-04-03T07:26:53;2.05;;;0.90;;
53775;SDS011;44276;49.534;6.378;2023-04-03T07:29:21;1.77;;;0.73;;
53775;SDS011;44276;49.534;6.378;2023-04-03T07:31:50;2.17;;;0.80;;
53775;SDS011;44276;49.534;6.378;2023-04-03T07:34:20;2.30;;;0.93;;
53775;SDS011;44276;49.534;6.378;2023-04-03T07:36:48;3.88;;;1.15;;
53775;SDS011;44276;49.534;6.378;2023-04-03T07:39:16;4.95;;;1.10;;
53775;SDS011;44276;49.534;6.378;2023-04-03T07:41:45;1.33;;;0.75;;
53775;SDS011;44276;49.534;6.378;2023-04-03T07:44:13;0.98;;;0.50;;
53775;SDS011;44276;49.534;6.378;2023-04-03T07:46:41;1.50;;;0.60;;
53775;SDS011;44276;49.534;6.378;2023-04-03T07:49:09;3.25;;;0.90;;
53775;SDS011;44276;49.534;6.378;2023-04-03T07:51:39;2.08;;;1.42;;
53775;SDS011;44276;49.534;6.378;2023-04-03T07:54:08;1.30;;;0.90;;
53775;SDS011;44276;49.534;6.378;2023-04-03T07:56:37;3.05;;;0.75;;
53775;SDS011;44276;49.534;6.378;2023-04-03T07:59:05;4.13;;;1.50;;
53775;SDS011;44276;49.534;6.378;2023-04-03T08:01:34;2.70;;;1.58;;
53775;SDS011;44276;49.534;6.378;2023-04-03T08:04:02;6.43;;;1.08;;
53775;SDS011;44276;49.534;6.378;2023-04-03T08:06:30;2.42;;;0.80;;
53775;SDS011;44276;49.534;6.378;2023-04-03T08:09:13;4.75;;;1.50;;
53775;SDS011;44276;49.534;6.378;2023-04-03T08:11:42;3.55;;;1.15;;
53775;SDS011;44276;49.534;6.378;2023-04-03T08:14:12;3.38;;;0.90;;
53775;SDS011;44276;49.534;6.378;2023-04-03T08:16:45;2.53;;;1.13;;
53775;SDS011;44276;49.534;6.378;2023-04-03T08:19:15;1.65;;;0.82;;
53775;SDS011;44276;49.534;6.378;2023-04-03T08:21:51;3.65;;;0.90;;
53775;SDS011;44276;49.534;6.378;2023-04-03T08:24:22;1.65;;;0.85;;
53775;SDS011;44276;49.534;6.378;2023-04-03T08:26:50;1.02;;;0.50;;
53775;SDS011;44276;49.534;6.378;2023-04-03T08:29:19;3.97;;;1.15;;
53775;SDS011;44276;49.534;6.378;2023-04-03T08:31:47;1.17;;;0.90;;
53775;SDS011;44276;49.534;6.378;2023-04-03T08:34:16;5.32;;;1.13;;
53775;SDS011;44276;49.534;6.378;2023-04-03T08:36:45;3.30;;;0.95;;
53775;SDS011;44276;49.534;6.378;2023-04-03T08:39:14;1.80;;;0.70;;
53775;SDS011;44276;49.534;6.378;2023-04-03T08:41:44;1.75;;;0.70;;
53775;SDS011;44276;49.534;6.378;2023-04-03T08:44:15;8.15;;;1.58;;
53775;SDS011;44276;49.534;6.378;2023-04-03T08:46:57;1.55;;;0.93;;
53775;SDS011;44276;49.534;6.378;2023-04-03T08:49:39;2.13;;;0.95;;
53775;SDS011;44276;49.534;6.378;2023-04-03T08:52:15;3.72;;;0.90;;
53775;SDS011;44276;49.534;6.378;2023-04-03T08:54:48;6.00;;;1.10;;
53775;SDS011;44276;49.534;6.378;2023-04-03T08:57:26;3.00;;;1.30;;
53775;SDS011;44276;49.534;6.378;2023-04-03T08:59:59;3.22;;;1.02;;
53775;SDS011;44276;49.534;6.378;2023-04-03T09:02:34;1.50;;;1.02;;
53775;SDS011;44276;49.534;6.378;2023-04-03T09:05:14;2.22;;;0.93;;
53775;SDS011;44276;49.534;6.378;2023-04-03T09:07:45;3.28;;;0.75;;
53775;SDS011;44276;49.534;6.378;2023-04-03T09:10:24;5.53;;;1.00;;
53775;SDS011;44276;49.534;6.378;2023-04-03T09:12:59;1.45;;;0.82;;
53775;SDS011;44276;49.534;6.378;2023-04-03T09:15:34;1.48;;;0.85;;
53775;SDS011;44276;49.534;6.378;2023-04-03T09:18:05;3.80;;;0.85;;
53775;SDS011;44276;49.534;6.378;2023-04-03T09:20:44;2.00;;;0.52;;
53775;SDS011;44276;49.534;6.378;2023-04-03T09:23:26;2.30;;;0.90;;
53775;SDS011;44276;49.534;6.378;2023-04-03T09:26:02;2.05;;;1.17;;
53775;SDS011;44276;49.534;6.378;2023-04-03T09:28:38;1.25;;;0.75;;
53775;SDS011;44276;49.534;6.378;2023-04-03T09:31:18;3.08;;;0.70;;
53775;SDS011;44276;49.534;6.378;2023-04-03T09:33:50;0.88;;;0.43;;
53775;SDS011;44276;49.534;6.378;2023-04-03T09:36:40;1.77;;;0.63;;
53775;SDS011;44276;49.534;6.378;2023-04-03T09:39:12;1.50;;;1.40;;
53775;SDS011;44276;49.534;6.378;2023-04-03T09:41:54;1.63;;;0.68;;
53775;SDS011;44276;49.534;6.378;2023-04-03T09:44:29;1.25;;;1.15;;
53775;SDS011;44276;49.534;6.378;2023-04-03T09:47:16;3.78;;;1.25;;
53775;SDS011;44276;49.534;6.378;2023-04-03T09:49:51;1.10;;;0.40;;
53775;SDS011;44276;49.534;6.378;2023-04-03T09:52:45;1.77;;;0.70;;
53775;SDS011;44276;49.534;6.378;2023-04-03T09:55:15;3.38;;;0.85;;
53775;SDS011;44276;49.534;6.378;2023-04-03T09:57:47;1.45;;;0.60;;
53775;SDS011;44276;49.534;6.378;2023-04-03T10:00:23;1.10;;;0.82;;
53775;SDS011;44276;49.534;6.378;2023-04-03T10:02:58;1.50;;;0.70;;
53775;SDS011;44276;49.534;6.378;2023-04-03T10:05:30;3.88;;;1.00;;
53775;SDS011;44276;49.534;6.378;2023-04-03T10:08:08;2.78;;;0.50;;
53775;SDS011;44276;49.534;6.378;2023-04-03T10:11:05;1.50;;;0.40;;
53775;SDS011;44276;49.534;6.378;2023-04-03T10:13:52;4.20;;;0.93;;
53775;SDS011;44276;49.534;6.378;2023-04-03T10:16:28;2.17;;;0.93;;
53775;SDS011;44276;49.534;6.378;2023-04-03T10:19:11;1.35;;;0.80;;
53775;SDS011;44276;49.534;6.378;2023-04-03T10:22:00;2.22;;;1.02;;
53775;SDS011;44276;49.534;6.378;2023-04-03T10:24:36;2.33;;;1.00;;
53775;SDS011;44276;49.534;6.378;2023-04-03T10:27:22;1.77;;;1.05;;
53775;SDS011;44276;49.534;6.378;2023-04-03T10:30:04;4.15;;;0.93;;
53775;SDS011;44276;49.534;6.378;2023-04-03T10:32:54;0.70;;;0.65;;
53775;SDS011;44276;49.534;6.378;2023-04-03T10:35:39;2.55;;;0.70;;
53775;SDS011;44276;49.534;6.378;2023-04-03T10:38:19;6.60;;;0.80;;
53775;SDS011;44276;49.534;6.378;2023-04-03T10:40:59;1.65;;;0.63;;
53775;SDS011;44276;49.534;6.378;2023-04-03T10:43:42;1.15;;;0.70;;
53775;SDS011;44276;49.534;6.378;2023-04-03T10:46:23;3.13;;;1.45;;
53775;SDS011;44276;49.534;6.378;2023-04-03T10:49:08;3.25;;;0.90;;
53775;SDS011;44276;49.534;6.378;2023-04-03T10:51:55;1.70;;;1.25;;
53775;SDS011;44276;49.534;6.378;2023-04-03T10:54:34;2.70;;;1.00;;
53775;SDS011;44276;49.534;6.378;2023-04-03T10:57:07;2.90;;;0.60;;
53775;SDS011;44276;49.534;6.378;2023-04-03T10:59:40;2.03;;;0.82;;
53775;SDS011;44276;49.534;6.378;2023-04-03T11:02:15;2.25;;;1.45;;
53775;SDS011;44276;49.534;6.378;2023-04-03T11:04:59;1.45;;;0.77;;
53775;SDS011;44276;49.534;6.378;2023-04-03T11:07:36;5.68;;;1.35;;
53775;SDS011;44276;49.534;6.378;2023-04-03T11:10:09;1.38;;;0.70;;
53775;SDS011;44276;49.534;6.378;2023-04-03T11:12:46;1.15;;;0.50;;
53775;SDS011;44276;49.534;6.378;2023-04-03T11:15:20;4.53;;;1.00;;
53775;SDS011;44276;49.534;6.378;2023-04-03T11:17:53;1.60;;;0.70;;
53775;SDS011;44276;49.534;6.378;2023-04-03T11:20:31;1.00;;;0.73;;
53775;SDS011;44276;49.534;6.378;2023-04-03T11:23:01;3.90;;;1.10;;
53775;SDS011;44276;49.534;6.378;2023-04-03T11:25:33;3.60;;;1.05;;
53775;SDS011;44276;49.534;6.378;2023-04-03T11:28:10;1.70;;;1.10;;
53775;SDS011;44276;49.534;6.378;2023-04-03T11:30:42;4.88;;;1.30;;
53775;SDS011;44276;49.534;6.378;2023-04-03T11:33:23;1.33;;;0.70;;
53775;SDS011;44276;49.534;6.378;2023-04-03T11:36:07;5.10;;;1.75;;
53775;SDS011;44276;49.534;6.378;2023-04-03T11:38:51;3.05;;;1.05;;
53775;SDS011;44276;49.534;6.378;2023-04-03T11:41:25;2.20;;;0.93;;
53775;SDS011;44276;49.534;6.378;2023-04-03T11:43:57;3.28;;;1.00;;
53775;SDS011;44276;49.534;6.378;2023-04-03T11:46:48;4.07;;;1.08;;
53775;SDS011;44276;49.534;6.378;2023-04-03T11:55:45;1.75;;;0.93;;
53775;SDS011;44276;49.534;6.378;2023-04-03T11:58:22;4.38;;;0.82;;
53775;SDS011;44276;49.534;6.378;2023-04-03T12:00:54;2.17;;;0.98;;
53775;SDS011;44276;49.534;6.378;2023-04-03T12:12:57;4.97;;;0.65;;
53775;SDS011;44276;49.534;6.378;2023-04-03T12:24:39;6.25;;;1.20;;
53775;SDS011;44276;49.534;6.378;2023-04-03T12:27:14;4.78;;;2.40;;
53775;SDS011;44276;49.534;6.378;2023-04-03T12:30:04;4.07;;;2.78;;
53775;SDS011;44276;49.534;6.378;2023-04-03T12:32:45;6.32;;;4.00;;
53775;SDS011;44276;49.534;6.378;2023-04-03T12:35:43;4.35;;;2.97;;
53775;SDS011;44276;49.534;6.378;2023-04-03T12:38:37;3.13;;;1.83;;
53775;SDS011;44276;49.534;6.378;2023-04-03T12:41:27;3.75;;;2.33;;
53775;SDS011;44276;49.534;6.378;2023-04-03T12:44:12;5.88;;;1.73;;
53775;SDS011;44276;49.534;6.378;2023-04-03T12:47:08;9.20;;;1.83;;
53775;SDS011;44276;49.534;6.378;2023-04-03T12:49:55;2.00;;;1.00;;
53775;SDS011;44276;49.534;6.378;2023-04-03T12:52:30;3.88;;;1.88;;
53775;SDS011;44276;49.534;6.378;2023-04-03T12:55:08;1.98;;;0.90;;
53775;SDS011;44276;49.534;6.378;2023-04-03T12:57:43;2.60;;;1.55;;
53775;SDS011;44276;49.534;6.378;2023-04-03T13:00:21;3.40;;;1.25;;
53775;SDS011;44276;49.534;6.378;2023-04-03T13:02:58;1.67;;;1.27;;
53775;SDS011;44276;49.534;6.378;2023-04-03T13:05:31;3.60;;;0.93;;
53775;SDS011;44276;49.534;6.378;2023-04-03T13:08:03;2.65;;;1.00;;
53775;SDS011;44276;49.534;6.378;2023-04-03T13:10:43;1.63;;;1.40;;
53775;SDS011;44276;49.534;6.378;2023-04-03T13:13:25;6.03;;;3.05;;
53775;SDS011;44276;49.534;6.378;2023-04-03T13:15:56;8.25;;;2.10;;
53775;SDS011;44276;49.534;6.378;2023-04-03T13:18:26;4.18;;;2.75;;
53775;SDS011;44276;49.534;6.378;2023-04-03T13:20:59;4.25;;;1.23;;
53775;SDS011;44276;49.534;6.378;2023-04-03T13:23:34;4.60;;;2.53;;
53775;SDS011;44276;49.534;6.378;2023-04-03T13:26:06;1.10;;;0.88;;
53775;SDS011;44276;49.534;6.378;2023-04-03T13:28:36;1.75;;;0.57;;
53775;SDS011;44276;49.534;6.378;2023-04-03T13:31:15;1.00;;;0.52;;
53775;SDS011;44276;49.534;6.378;2023-04-03T13:34:02;3.38;;;0.95;;
53775;SDS011;44276;49.534;6.378;2023-04-03T13:36:39;5.13;;;1.48;;
53775;SDS011;44276;49.534;6.378;2023-04-03T13:39:20;1.58;;;0.75;;
53775;SDS011;44276;49.534;6.378;2023-04-03T13:41:53;4.05;;;1.02;;
53775;SDS011;44276;49.534;6.378;2023-04-03T13:44:26;1.42;;;0.80;;
53775;SDS011;44276;49.534;6.378;2023-04-03T13:47:16;2.92;;;0.70;;
53775;SDS011;44276;49.534;6.378;2023-04-03T13:49:58;3.17;;;0.90;;
53775;SDS011;44276;49.534;6.378;2023-04-03T13:52:31;5.95;;;0.70;;
53775;SDS011;44276;49.534;6.378;2023-04-03T13:55:15;1.15;;;0.47;;
53775;SDS011;44276;49.534;6.378;2023-04-03T13:57:53;3.95;;;0.85;;
53775;SDS011;44276;49.534;6.378;2023-04-03T14:00:32;2.95;;;1.08;;
53775;SDS011;44276;49.534;6.378;2023-04-03T14:03:18;0.73;;;0.65;;
53775;SDS011;44276;49.534;6.378;2023-04-03T14:05:50;3.92;;;1.13;;
53775;SDS011;44276;49.534;6.378;2023-04-03T14:08:19;3.03;;;0.65;;
53775;SDS011;44276;49.534;6.378;2023-04-03T14:11:05;1.60;;;0.75;;
53775;SDS011;44276;49.534;6.378;2023-04-03T14:13:34;2.42;;;0.43;;
53775;SDS011;44276;49.534;6.378;2023-04-03T14:16:02;1.70;;;0.60;;
53775;SDS011;44276;49.534;6.378;2023-04-03T14:18:42;4.30;;;1.08;;
53775;SDS011;44276;49.534;6.378;2023-04-03T14:21:12;2.22;;;0.80;;
53775;SDS011;44276;49.534;6.378;2023-04-03T14:23:43;4.38;;;1.35;;
53775;SDS011;44276;49.534;6.378;2023-04-03T14:26:12;2.15;;;1.08;;
53775;SDS011;44276;49.534;6.378;2023-04-03T14:28:44;4.93;;;1.52;;
53775;SDS011;44276;49.534;6.378;2023-04-03T14:31:14;1.80;;;0.93;;
53775;SDS011;44276;49.534;6.378;2023-04-03T14:33:45;4.50;;;1.33;;
53775;SDS011;44276;49.534;6.378;2023-04-03T14:36:14;1.98;;;0.93;;
53775;SDS011;44276;49.534;6.378;2023-04-03T14:38:44;2.33;;;0.55;;
53775;SDS011;44276;49.534;6.378;2023-04-03T14:41:14;7.32;;;1.15;;
53775;SDS011;44276;49.534;6.378;2023-04-03T14:43:45;1.67;;;0.68;;
53775;SDS011;44276;49.534;6.378;2023-04-03T14:46:16;2.35;;;1.10;;
53775;SDS011;44276;49.534;6.378;2023-04-03T14:48:54;2.22;;;1.20;;
53775;SDS011;44276;49.534;6.378;2023-04-03T14:51:22;3.10;;;1.02;;
53775;SDS011;44276;49.534;6.378;2023-04-03T14:53:51;3.72;;;1.20;;
53775;SDS011;44276;49.534;6.378;2023-04-03T14:56:23;3.20;;;1.17;;
53775;SDS011;44276;49.534;6.378;2023-04-03T14:58:55;4.05;;;1.30;;
53775;SDS011;44276;49.534;6.378;2023-04-03T15:01:29;2.72;;;1.15;;
53775;SDS011;44276;49.534;6.378;2023-04-03T15:03:59;7.28;;;1.38;;
53775;SDS011;44276;49.534;6.378;2023-04-03T15:06:27;2.85;;;1.88;;
53775;SDS011;44276;49.534;6.378;2023-04-03T15:09:03;2.47;;;0.60;;
53775;SDS011;44276;49.534;6.378;2023-04-03T15:11:31;4.07;;;1.45;;
53775;SDS011;44276;49.534;6.378;2023-04-03T15:14:02;1.50;;;0.80;;
53775;SDS011;44276;49.534;6.378;2023-04-03T15:16:30;3.63;;;0.60;;
53775;SDS011;44276;49.534;6.378;2023-04-03T15:19:00;2.67;;;0.70;;
53775;SDS011;44276;49.534;6.378;2023-04-03T15:21:29;2.72;;;0.57;;
53775;SDS011;44276;49.534;6.378;2023-04-03T15:23:57;2.90;;;0.68;;
53775;SDS011;44276;49.534;6.378;2023-04-03T15:26:27;4.22;;;1.13;;
53775;SDS011;44276;49.534;6.378;2023-04-03T15:28:56;1.65;;;0.88;;
53775;SDS011;44276;49.534;6.378;2023-04-03T15:31:24;1.38;;;0.60;;
53775;SDS011;44276;49.534;6.378;2023-04-03T15:33:53;3.25;;;0.50;;
53775;SDS011;44276;49.534;6.378;2023-04-03T15:36:22;2.22;;;0.80;;
53775;SDS011;44276;49.534;6.378;2023-04-03T15:38:59;3.63;;;0.55;;
53775;SDS011;44276;49.534;6.378;2023-04-03T15:41:28;0.50;;;0.50;;
53775;SDS011;44276;49.534;6.378;2023-04-03T15:43:56;1.48;;;0.47;;
53775;SDS011;44276;49.534;6.378;2023-04-03T15:46:25;0.98;;;0.60;;